Portada
METAR-TAF:

METAR-TAF

Aeroports :

Lawrenceville-Vincennes International Airport

Lawrenceville, Illinois, Estats Units d'Amèrica

latitud: 38-45-38N, longitud: 087-35-56W, altitud: 131 m

Observació

L'informe es va fer fa 11 minuts, a les 18:53 UTC
Vent 7 kt del Nord/Nord-Est
Temperatura 15°C
Humitat 33%
Pressió 1022 hPa
Visibilitat: 14.5 km
Cel ennuvolat a una alçada de 800 ft
Cel cobert a una alçada de 1100 ft

METAR: KLWV 211853Z AUTO 03007KT 9SM BKN008 OVC011 15/M01 A3018 RMK AO2 SLP219 T01501006

Hora: 14:04 (19:04 UTC)


TAF: manca

Observacions i pronòstics meteorològics de més de 4000 aeroports (METAR i TAF).

Les estacions disponibles són els punts grocs i vermells al mapa.

Posi el ratolí al punt desitjat per veure el nom de l'estació.

Feu clic per veure les observacions i els pronòstics meteorològics.

Per canviar el mapa: feu clic els botons verds amb una creu de color negre per apropar; al botó verd amb un guió per allunyar la imatge; o en les fletxes verdes per a mapes adjacents.


METAR-TAF: